sensor_id;sensor_type;location;lat;lon;timestamp;P1;durP1;ratioP1;P2;durP2;ratioP2
70592;SDS011;58294;42.988;20.338;2022-12-15T00:00:11;34.75;;;29.73;;
70592;SDS011;58294;42.988;20.338;2022-12-15T00:02:55;51.85;;;46.33;;
70592;SDS011;58294;42.988;20.338;2022-12-15T00:05:39;54.78;;;45.40;;
70592;SDS011;58294;42.988;20.338;2022-12-15T00:08:23;42.25;;;37.70;;
70592;SDS011;58294;42.988;20.338;2022-12-15T00:11:08;40.40;;;36.08;;
70592;SDS011;58294;42.988;20.338;2022-12-15T00:13:52;40.45;;;36.08;;
70592;SDS011;58294;42.988;20.338;2022-12-15T00:16:36;26.20;;;23.50;;
70592;SDS011;58294;42.988;20.338;2022-12-15T00:19:20;28.58;;;22.90;;
70592;SDS011;58294;42.988;20.338;2022-12-15T00:22:04;40.60;;;27.87;;
70592;SDS011;58294;42.988;20.338;2022-12-15T00:24:49;44.00;;;33.40;;
70592;SDS011;58294;42.988;20.338;2022-12-15T00:27:33;39.78;;;33.25;;
70592;SDS011;58294;42.988;20.338;2022-12-15T00:30:17;37.00;;;27.70;;
70592;SDS011;58294;42.988;20.338;2022-12-15T00:33:11;30.77;;;23.92;;
70592;SDS011;58294;42.988;20.338;2022-12-15T00:35:57;32.10;;;25.20;;
70592;SDS011;58294;42.988;20.338;2022-12-15T00:38:41;29.35;;;24.98;;
70592;SDS011;58294;42.988;20.338;2022-12-15T00:41:08;26.92;;;23.67;;
70592;SDS011;58294;42.988;20.338;2022-12-15T00:43:36;26.92;;;23.38;;
70592;SDS011;58294;42.988;20.338;2022-12-15T00:46:02;30.95;;;27.67;;
70592;SDS011;58294;42.988;20.338;2022-12-15T00:48:47;31.83;;;27.08;;
70592;SDS011;58294;42.988;20.338;2022-12-15T00:51:13;30.23;;;25.90;;
70592;SDS011;58294;42.988;20.338;2022-12-15T00:53:40;31.52;;;26.48;;
70592;SDS011;58294;42.988;20.338;2022-12-15T00:56:24;22.98;;;20.48;;
70592;SDS011;58294;42.988;20.338;2022-12-15T00:59:09;31.85;;;26.92;;
70592;SDS011;58294;42.988;20.338;2022-12-15T01:01:54;49.35;;;41.40;;
70592;SDS011;58294;42.988;20.338;2022-12-15T01:04:38;73.53;;;60.20;;
70592;SDS011;58294;42.988;20.338;2022-12-15T01:07:22;64.40;;;53.78;;
70592;SDS011;58294;42.988;20.338;2022-12-15T01:10:06;53.25;;;43.50;;
70592;SDS011;58294;42.988;20.338;2022-12-15T01:12:50;66.40;;;50.35;;
70592;SDS011;58294;42.988;20.338;2022-12-15T01:15:35;52.17;;;39.95;;
70592;SDS011;58294;42.988;20.338;2022-12-15T01:18:20;52.03;;;41.97;;
70592;SDS011;58294;42.988;20.338;2022-12-15T01:21:06;55.40;;;41.80;;
70592;SDS011;58294;42.988;20.338;2022-12-15T01:23:32;44.05;;;35.08;;
70592;SDS011;58294;42.988;20.338;2022-12-15T01:25:59;84.38;;;56.72;;
70592;SDS011;58294;42.988;20.338;2022-12-15T01:28:25;72.68;;;46.40;;
70592;SDS011;58294;42.988;20.338;2022-12-15T01:30:51;42.22;;;35.20;;
70592;SDS011;58294;42.988;20.338;2022-12-15T01:33:18;47.17;;;39.88;;
70592;SDS011;58294;42.988;20.338;2022-12-15T01:35:45;55.55;;;46.30;;
70592;SDS011;58294;42.988;20.338;2022-12-15T01:38:23;54.42;;;39.63;;
70592;SDS011;58294;42.988;20.338;2022-12-15T01:40:50;39.63;;;31.35;;
70592;SDS011;58294;42.988;20.338;2022-12-15T01:43:23;42.58;;;31.95;;
70592;SDS011;58294;42.988;20.338;2022-12-15T01:45:55;61.22;;;37.53;;
70592;SDS011;58294;42.988;20.338;2022-12-15T01:51:04;64.05;;;48.05;;
70592;SDS011;58294;42.988;20.338;2022-12-15T01:53:36;48.97;;;37.60;;
70592;SDS011;58294;42.988;20.338;2022-12-15T01:56:29;45.80;;;33.47;;
70592;SDS011;58294;42.988;20.338;2022-12-15T01:58:58;29.20;;;23.98;;
70592;SDS011;58294;42.988;20.338;2022-12-15T02:01:27;15.45;;;13.00;;
70592;SDS011;58294;42.988;20.338;2022-12-15T02:03:53;10.25;;;8.50;;
70592;SDS011;58294;42.988;20.338;2022-12-15T02:06:20;16.00;;;10.88;;
70592;SDS011;58294;42.988;20.338;2022-12-15T02:08:49;10.98;;;9.82;;
70592;SDS011;58294;42.988;20.338;2022-12-15T02:19:39;9.13;;;8.32;;
70592;SDS011;58294;42.988;20.338;2022-12-15T02:27:32;37.72;;;29.08;;
70592;SDS011;58294;42.988;20.338;2022-12-15T02:30:32;21.38;;;17.95;;
70592;SDS011;58294;42.988;20.338;2022-12-15T02:33:23;18.92;;;16.13;;
70592;SDS011;58294;42.988;20.338;2022-12-15T02:36:27;24.80;;;22.13;;
70592;SDS011;58294;42.988;20.338;2022-12-15T02:38:53;21.55;;;17.63;;
70592;SDS011;58294;42.988;20.338;2022-12-15T02:44:09;26.27;;;21.58;;
70592;SDS011;58294;42.988;20.338;2022-12-15T02:47:29;22.80;;;19.52;;
70592;SDS011;58294;42.988;20.338;2022-12-15T02:49:44;20.92;;;18.73;;
70592;SDS011;58294;42.988;20.338;2022-12-15T03:00:23;24.77;;;20.48;;
70592;SDS011;58294;42.988;20.338;2022-12-15T03:02:50;27.38;;;23.73;;
70592;SDS011;58294;42.988;20.338;2022-12-15T03:05:18;35.20;;;31.42;;
70592;SDS011;58294;42.988;20.338;2022-12-15T03:07:48;44.03;;;35.00;;
70592;SDS011;58294;42.988;20.338;2022-12-15T03:10:15;45.42;;;35.53;;
70592;SDS011;58294;42.988;20.338;2022-12-15T03:12:42;51.13;;;40.35;;
70592;SDS011;58294;42.988;20.338;2022-12-15T03:15:07;82.10;;;61.38;;
70592;SDS011;58294;42.988;20.338;2022-12-15T03:17:34;72.45;;;54.47;;
70592;SDS011;58294;42.988;20.338;2022-12-15T03:19:59;72.40;;;55.75;;
70592;SDS011;58294;42.988;20.338;2022-12-15T03:22:25;53.50;;;40.08;;
70592;SDS011;58294;42.988;20.338;2022-12-15T03:24:51;45.78;;;34.05;;
70592;SDS011;58294;42.988;20.338;2022-12-15T03:27:17;49.13;;;38.67;;
70592;SDS011;58294;42.988;20.338;2022-12-15T03:29:43;62.80;;;49.97;;
70592;SDS011;58294;42.988;20.338;2022-12-15T03:32:09;79.78;;;59.00;;
70592;SDS011;58294;42.988;20.338;2022-12-15T03:34:35;73.82;;;58.15;;
70592;SDS011;58294;42.988;20.338;2022-12-15T03:37:00;65.85;;;53.78;;
70592;SDS011;58294;42.988;20.338;2022-12-15T03:39:26;49.45;;;41.55;;
70592;SDS011;58294;42.988;20.338;2022-12-15T03:41:52;74.32;;;59.05;;
70592;SDS011;58294;42.988;20.338;2022-12-15T03:44:18;57.47;;;46.42;;
70592;SDS011;58294;42.988;20.338;2022-12-15T03:46:45;41.92;;;37.20;;
70592;SDS011;58294;42.988;20.338;2022-12-15T03:49:11;48.95;;;39.35;;
70592;SDS011;58294;42.988;20.338;2022-12-15T03:51:37;48.08;;;37.80;;
70592;SDS011;58294;42.988;20.338;2022-12-15T03:54:03;50.25;;;37.45;;
70592;SDS011;58294;42.988;20.338;2022-12-15T03:56:28;52.75;;;43.45;;
70592;SDS011;58294;42.988;20.338;2022-12-15T03:58:54;49.65;;;40.25;;
70592;SDS011;58294;42.988;20.338;2022-12-15T04:01:30;51.13;;;41.08;;
70592;SDS011;58294;42.988;20.338;2022-12-15T04:03:58;104.95;;;75.60;;
70592;SDS011;58294;42.988;20.338;2022-12-15T04:06:25;117.13;;;86.57;;
70592;SDS011;58294;42.988;20.338;2022-12-15T04:08:51;104.30;;;77.85;;
70592;SDS011;58294;42.988;20.338;2022-12-15T04:11:17;104.75;;;81.80;;
70592;SDS011;58294;42.988;20.338;2022-12-15T04:13:43;97.90;;;74.28;;
70592;SDS011;58294;42.988;20.338;2022-12-15T04:16:09;87.50;;;66.18;;
70592;SDS011;58294;42.988;20.338;2022-12-15T04:18:35;95.93;;;67.93;;
70592;SDS011;58294;42.988;20.338;2022-12-15T04:21:01;193.38;;;131.30;;
70592;SDS011;58294;42.988;20.338;2022-12-15T04:23:27;119.03;;;82.50;;
70592;SDS011;58294;42.988;20.338;2022-12-15T04:25:53;98.47;;;65.03;;
70592;SDS011;58294;42.988;20.338;2022-12-15T04:28:37;89.53;;;62.90;;
70592;SDS011;58294;42.988;20.338;2022-12-15T04:31:25;80.80;;;56.75;;
70592;SDS011;58294;42.988;20.338;2022-12-15T04:34:16;87.60;;;52.03;;
70592;SDS011;58294;42.988;20.338;2022-12-15T04:37:04;105.90;;;52.78;;
70592;SDS011;58294;42.988;20.338;2022-12-15T04:39:51;109.70;;;55.28;;
70592;SDS011;58294;42.988;20.338;2022-12-15T04:42:40;111.90;;;52.47;;
70592;SDS011;58294;42.988;20.338;2022-12-15T04:45:27;83.03;;;42.22;;
70592;SDS011;58294;42.988;20.338;2022-12-15T04:48:12;112.78;;;37.83;;
70592;SDS011;58294;42.988;20.338;2022-12-15T04:53:41;89.60;;;47.65;;
70592;SDS011;58294;42.988;20.338;2022-12-15T04:56:27;69.75;;;41.60;;
70592;SDS011;58294;42.988;20.338;2022-12-15T04:59:12;78.03;;;39.45;;
70592;SDS011;58294;42.988;20.338;2022-12-15T05:01:56;64.00;;;39.28;;
70592;SDS011;58294;42.988;20.338;2022-12-15T05:04:40;52.67;;;40.60;;
70592;SDS011;58294;42.988;20.338;2022-12-15T05:07:24;78.17;;;44.83;;
70592;SDS011;58294;42.988;20.338;2022-12-15T05:10:09;93.38;;;61.13;;
70592;SDS011;58294;42.988;20.338;2022-12-15T05:12:54;88.63;;;49.83;;
70592;SDS011;58294;42.988;20.338;2022-12-15T05:15:38;98.78;;;62.72;;
70592;SDS011;58294;42.988;20.338;2022-12-15T05:18:22;81.10;;;44.67;;
70592;SDS011;58294;42.988;20.338;2022-12-15T05:21:06;130.47;;;65.13;;
70592;SDS011;58294;42.988;20.338;2022-12-15T05:23:50;89.63;;;45.13;;
70592;SDS011;58294;42.988;20.338;2022-12-15T05:26:35;99.28;;;48.65;;
70592;SDS011;58294;42.988;20.338;2022-12-15T05:29:19;123.10;;;50.38;;
70592;SDS011;58294;42.988;20.338;2022-12-15T05:32:04;143.52;;;56.47;;
70592;SDS011;58294;42.988;20.338;2022-12-15T05:34:31;160.77;;;68.05;;
70592;SDS011;58294;42.988;20.338;2022-12-15T05:36:59;147.75;;;74.07;;
70592;SDS011;58294;42.988;20.338;2022-12-15T05:39:26;162.52;;;79.95;;
70592;SDS011;58294;42.988;20.338;2022-12-15T05:41:52;154.35;;;72.45;;
70592;SDS011;58294;42.988;20.338;2022-12-15T05:44:19;143.10;;;64.32;;
70592;SDS011;58294;42.988;20.338;2022-12-15T05:46:45;136.70;;;59.10;;
70592;SDS011;58294;42.988;20.338;2022-12-15T05:49:13;89.10;;;34.67;;
70592;SDS011;58294;42.988;20.338;2022-12-15T05:51:40;136.52;;;48.00;;
70592;SDS011;58294;42.988;20.338;2022-12-15T05:54:07;126.25;;;55.45;;
70592;SDS011;58294;42.988;20.338;2022-12-15T05:56:34;82.18;;;27.10;;
70592;SDS011;58294;42.988;20.338;2022-12-15T05:59:00;60.72;;;20.30;;
70592;SDS011;58294;42.988;20.338;2022-12-15T06:01:26;69.82;;;23.67;;
70592;SDS011;58294;42.988;20.338;2022-12-15T06:03:52;63.67;;;22.23;;
70592;SDS011;58294;42.988;20.338;2022-12-15T06:06:18;71.55;;;23.63;;
70592;SDS011;58294;42.988;20.338;2022-12-15T06:08:44;67.25;;;22.27;;
70592;SDS011;58294;42.988;20.338;2022-12-15T06:11:11;92.38;;;31.52;;
70592;SDS011;58294;42.988;20.338;2022-12-15T06:13:38;78.38;;;29.08;;
70592;SDS011;58294;42.988;20.338;2022-12-15T06:16:05;75.28;;;28.55;;
70592;SDS011;58294;42.988;20.338;2022-12-15T06:18:35;73.93;;;30.25;;
70592;SDS011;58294;42.988;20.338;2022-12-15T06:21:08;49.40;;;26.63;;
70592;SDS011;58294;42.988;20.338;2022-12-15T06:23:36;68.88;;;34.55;;
70592;SDS011;58294;42.988;20.338;2022-12-15T06:28:39;89.00;;;45.70;;
70592;SDS011;58294;42.988;20.338;2022-12-15T06:31:06;72.97;;;43.10;;
70592;SDS011;58294;42.988;20.338;2022-12-15T06:33:34;137.65;;;73.20;;
70592;SDS011;58294;42.988;20.338;2022-12-15T06:36:01;144.90;;;74.75;;
70592;SDS011;58294;42.988;20.338;2022-12-15T06:38:28;124.85;;;68.18;;
70592;SDS011;58294;42.988;20.338;2022-12-15T06:40:55;91.22;;;45.10;;
70592;SDS011;58294;42.988;20.338;2022-12-15T06:43:21;94.32;;;48.17;;
70592;SDS011;58294;42.988;20.338;2022-12-15T06:45:47;151.50;;;91.53;;
70592;SDS011;58294;42.988;20.338;2022-12-15T06:48:14;101.53;;;46.75;;
70592;SDS011;58294;42.988;20.338;2022-12-15T06:50:40;119.60;;;51.90;;
70592;SDS011;58294;42.988;20.338;2022-12-15T06:53:06;114.68;;;48.88;;
70592;SDS011;58294;42.988;20.338;2022-12-15T06:55:32;92.22;;;44.97;;
70592;SDS011;58294;42.988;20.338;2022-12-15T06:57:57;109.72;;;54.13;;
70592;SDS011;58294;42.988;20.338;2022-12-15T07:00:23;99.28;;;48.53;;
70592;SDS011;58294;42.988;20.338;2022-12-15T07:02:49;128.32;;;61.22;;
70592;SDS011;58294;42.988;20.338;2022-12-15T07:05:15;104.97;;;49.97;;
70592;SDS011;58294;42.988;20.338;2022-12-15T07:07:41;99.97;;;42.28;;
70592;SDS011;58294;42.988;20.338;2022-12-15T07:10:06;93.47;;;32.50;;
70592;SDS011;58294;42.988;20.338;2022-12-15T07:12:33;72.18;;;26.30;;
70592;SDS011;58294;42.988;20.338;2022-12-15T07:14:58;71.68;;;23.70;;
70592;SDS011;58294;42.988;20.338;2022-12-15T07:17:24;88.63;;;34.92;;
70592;SDS011;58294;42.988;20.338;2022-12-15T07:19:50;137.65;;;68.55;;
70592;SDS011;58294;42.988;20.338;2022-12-15T07:22:15;113.70;;;57.78;;
70592;SDS011;58294;42.988;20.338;2022-12-15T07:24:41;107.47;;;46.80;;
70592;SDS011;58294;42.988;20.338;2022-12-15T07:27:07;145.02;;;71.05;;
70592;SDS011;58294;42.988;20.338;2022-12-15T07:29:33;197.15;;;90.32;;
70592;SDS011;58294;42.988;20.338;2022-12-15T07:31:59;180.23;;;87.57;;
70592;SDS011;58294;42.988;20.338;2022-12-15T07:34:25;193.75;;;99.15;;
70592;SDS011;58294;42.988;20.338;2022-12-15T07:36:51;143.98;;;76.90;;
70592;SDS011;58294;42.988;20.338;2022-12-15T07:39:17;137.70;;;69.65;;
70592;SDS011;58294;42.988;20.338;2022-12-15T07:41:42;97.15;;;45.42;;
70592;SDS011;58294;42.988;20.338;2022-12-15T07:44:08;114.57;;;53.67;;
70592;SDS011;58294;42.988;20.338;2022-12-15T07:46:34;107.18;;;56.03;;
70592;SDS011;58294;42.988;20.338;2022-12-15T07:49:00;103.88;;;51.22;;
70592;SDS011;58294;42.988;20.338;2022-12-15T07:51:26;114.32;;;54.55;;
70592;SDS011;58294;42.988;20.338;2022-12-15T07:53:51;91.95;;;51.65;;
70592;SDS011;58294;42.988;20.338;2022-12-15T07:56:18;153.68;;;73.40;;
70592;SDS011;58294;42.988;20.338;2022-12-15T07:58:44;126.63;;;76.72;;
70592;SDS011;58294;42.988;20.338;2022-12-15T08:01:11;104.90;;;63.17;;
70592;SDS011;58294;42.988;20.338;2022-12-15T08:03:37;137.10;;;79.30;;
70592;SDS011;58294;42.988;20.338;2022-12-15T08:06:07;149.02;;;88.00;;
70592;SDS011;58294;42.988;20.338;2022-12-15T08:08:35;136.45;;;94.70;;
70592;SDS011;58294;42.988;20.338;2022-12-15T08:11:05;155.57;;;95.32;;
70592;SDS011;58294;42.988;20.338;2022-12-15T08:13:32;163.45;;;93.07;;
70592;SDS011;58294;42.988;20.338;2022-12-15T08:15:58;139.35;;;79.45;;
70592;SDS011;58294;42.988;20.338;2022-12-15T08:18:24;155.65;;;76.35;;
70592;SDS011;58294;42.988;20.338;2022-12-15T08:20:50;147.80;;;80.32;;
70592;SDS011;58294;42.988;20.338;2022-12-15T08:23:16;151.15;;;86.22;;
70592;SDS011;58294;42.988;20.338;2022-12-15T08:25:42;158.88;;;88.35;;
70592;SDS011;58294;42.988;20.338;2022-12-15T08:28:08;157.20;;;87.32;;
70592;SDS011;58294;42.988;20.338;2022-12-15T08:30:34;139.68;;;75.82;;
70592;SDS011;58294;42.988;20.338;2022-12-15T08:33:01;159.45;;;78.13;;
70592;SDS011;58294;42.988;20.338;2022-12-15T08:35:27;137.65;;;73.05;;
70592;SDS011;58294;42.988;20.338;2022-12-15T08:37:53;78.43;;;32.88;;
70592;SDS011;58294;42.988;20.338;2022-12-15T08:40:19;77.35;;;51.97;;
70592;SDS011;58294;42.988;20.338;2022-12-15T08:42:45;49.05;;;26.90;;
70592;SDS011;58294;42.988;20.338;2022-12-15T08:45:10;73.53;;;34.80;;
70592;SDS011;58294;42.988;20.338;2022-12-15T08:47:37;83.20;;;30.50;;
70592;SDS011;58294;42.988;20.338;2022-12-15T08:50:04;61.17;;;33.75;;
70592;SDS011;58294;42.988;20.338;2022-12-15T08:52:33;81.18;;;39.45;;
70592;SDS011;58294;42.988;20.338;2022-12-15T08:54:59;79.00;;;36.97;;
70592;SDS011;58294;42.988;20.338;2022-12-15T08:57:25;82.53;;;46.33;;
70592;SDS011;58294;42.988;20.338;2022-12-15T08:59:51;98.07;;;54.60;;
70592;SDS011;58294;42.988;20.338;2022-12-15T09:02:17;97.43;;;66.57;;
70592;SDS011;58294;42.988;20.338;2022-12-15T09:04:43;94.85;;;49.70;;
70592;SDS011;58294;42.988;20.338;2022-12-15T09:07:09;104.15;;;54.95;;
70592;SDS011;58294;42.988;20.338;2022-12-15T09:09:35;119.55;;;65.53;;
70592;SDS011;58294;42.988;20.338;2022-12-15T09:12:02;132.20;;;77.10;;
70592;SDS011;58294;42.988;20.338;2022-12-15T09:14:28;120.55;;;79.78;;
70592;SDS011;58294;42.988;20.338;2022-12-15T09:16:54;139.68;;;81.88;;
70592;SDS011;58294;42.988;20.338;2022-12-15T09:19:19;141.90;;;81.93;;
70592;SDS011;58294;42.988;20.338;2022-12-15T09:21:45;185.90;;;106.60;;
70592;SDS011;58294;42.988;20.338;2022-12-15T09:24:12;138.40;;;86.70;;
70592;SDS011;58294;42.988;20.338;2022-12-15T09:26:38;128.75;;;77.55;;
70592;SDS011;58294;42.988;20.338;2022-12-15T09:29:04;158.82;;;97.05;;
70592;SDS011;58294;42.988;20.338;2022-12-15T09:31:31;165.57;;;98.35;;
70592;SDS011;58294;42.988;20.338;2022-12-15T09:34:00;170.88;;;112.43;;
70592;SDS011;58294;42.988;20.338;2022-12-15T09:36:26;137.32;;;87.93;;
70592;SDS011;58294;42.988;20.338;2022-12-15T09:38:54;154.35;;;103.00;;
70592;SDS011;58294;42.988;20.338;2022-12-15T09:41:23;164.27;;;88.60;;
70592;SDS011;58294;42.988;20.338;2022-12-15T09:43:53;149.15;;;85.65;;
70592;SDS011;58294;42.988;20.338;2022-12-15T09:46:43;156.68;;;92.65;;
70592;SDS011;58294;42.988;20.338;2022-12-15T09:51:45;175.07;;;99.57;;
70592;SDS011;58294;42.988;20.338;2022-12-15T09:54:17;175.45;;;98.93;;
70592;SDS011;58294;42.988;20.338;2022-12-15T09:57:06;156.10;;;95.13;;
70592;SDS011;58294;42.988;20.338;2022-12-15T10:07:46;208.13;;;94.35;;
70592;SDS011;58294;42.988;20.338;2022-12-15T10:10:14;180.10;;;91.57;;
70592;SDS011;58294;42.988;20.338;2022-12-15T10:12:45;161.98;;;95.68;;
70592;SDS011;58294;42.988;20.338;2022-12-15T10:15:22;180.10;;;96.07;;
70592;SDS011;58294;42.988;20.338;2022-12-15T10:17:57;211.07;;;96.22;;
70592;SDS011;58294;42.988;20.338;2022-12-15T10:20:46;137.43;;;71.85;;
70592;SDS011;58294;42.988;20.338;2022-12-15T10:23:14;145.98;;;66.90;;
70592;SDS011;58294;42.988;20.338;2022-12-15T10:26:00;130.27;;;80.28;;
70592;SDS011;58294;42.988;20.338;2022-12-15T10:34:26;184.63;;;114.45;;
70592;SDS011;58294;42.988;20.338;2022-12-15T10:36:54;148.02;;;93.90;;
70592;SDS011;58294;42.988;20.338;2022-12-15T10:39:21;158.70;;;81.82;;
70592;SDS011;58294;42.988;20.338;2022-12-15T10:44:37;170.20;;;102.20;;
70592;SDS011;58294;42.988;20.338;2022-12-15T10:47:24;185.80;;;109.05;;
70592;SDS011;58294;42.988;20.338;2022-12-15T10:49:52;203.82;;;113.28;;
70592;SDS011;58294;42.988;20.338;2022-12-15T10:52:21;210.05;;;123.22;;
70592;SDS011;58294;42.988;20.338;2022-12-15T10:54:59;198.25;;;128.98;;
70592;SDS011;58294;42.988;20.338;2022-12-15T10:57:28;210.02;;;126.78;;
70592;SDS011;58294;42.988;20.338;2022-12-15T11:02:40;198.80;;;134.80;;
70592;SDS011;58294;42.988;20.338;2022-12-15T11:07:44;228.52;;;141.15;;
70592;SDS011;58294;42.988;20.338;2022-12-15T11:10:29;222.35;;;142.38;;
70592;SDS011;58294;42.988;20.338;2022-12-15T11:13:21;243.00;;;149.48;;
70592;SDS011;58294;42.988;20.338;2022-12-15T11:15:51;223.05;;;141.80;;
70592;SDS011;58294;42.988;20.338;2022-12-15T11:18:22;206.50;;;137.95;;
70592;SDS011;58294;42.988;20.338;2022-12-15T11:23:20;228.15;;;143.07;;
70592;SDS011;58294;42.988;20.338;2022-12-15T11:26:19;212.07;;;140.60;;
70592;SDS011;58294;42.988;20.338;2022-12-15T11:29:09;211.30;;;134.23;;
70592;SDS011;58294;42.988;20.338;2022-12-15T11:31:47;186.98;;;122.97;;
70592;SDS011;58294;42.988;20.338;2022-12-15T11:34:15;171.90;;;121.30;;
70592;SDS011;58294;42.988;20.338;2022-12-15T11:39:36;174.93;;;121.50;;
70592;SDS011;58294;42.988;20.338;2022-12-15T11:42:11;184.00;;;123.65;;
70592;SDS011;58294;42.988;20.338;2022-12-15T11:47:37;177.80;;;116.80;;
70592;SDS011;58294;42.988;20.338;2022-12-15T11:53:14;176.80;;;115.53;;
70592;SDS011;58294;42.988;20.338;2022-12-15T11:55:48;163.15;;;112.82;;
70592;SDS011;58294;42.988;20.338;2022-12-15T12:01:08;192.40;;;123.38;;
70592;SDS011;58294;42.988;20.338;2022-12-15T12:06:37;181.13;;;116.70;;
70592;SDS011;58294;42.988;20.338;2022-12-15T12:09:18;171.02;;;106.93;;
70592;SDS011;58294;42.988;20.338;2022-12-15T12:15:12;164.98;;;105.53;;
70592;SDS011;58294;42.988;20.338;2022-12-15T12:18:00;138.93;;;95.88;;
70592;SDS011;58294;42.988;20.338;2022-12-15T12:26:06;156.32;;;110.60;;
70592;SDS011;58294;42.988;20.338;2022-12-15T12:28:43;160.13;;;113.85;;
70592;SDS011;58294;42.988;20.338;2022-12-15T12:31:25;174.60;;;116.07;;
70592;SDS011;58294;42.988;20.338;2022-12-15T12:33:57;165.73;;;111.43;;
70592;SDS011;58294;42.988;20.338;2022-12-15T12:36:30;172.40;;;114.55;;
70592;SDS011;58294;42.988;20.338;2022-12-15T12:38:56;158.93;;;109.75;;
70592;SDS011;58294;42.988;20.338;2022-12-15T12:44:15;146.43;;;106.88;;
70592;SDS011;58294;42.988;20.338;2022-12-15T12:46:52;307.58;;;228.32;;
70592;SDS011;58294;42.988;20.338;2022-12-15T12:52:01;183.52;;;132.35;;
70592;SDS011;58294;42.988;20.338;2022-12-15T12:56:59;178.70;;;128.02;;
70592;SDS011;58294;42.988;20.338;2022-12-15T13:02:10;212.68;;;152.65;;
70592;SDS011;58294;42.988;20.338;2022-12-15T13:04:41;196.07;;;144.93;;
70592;SDS011;58294;42.988;20.338;2022-12-15T13:10:35;216.80;;;167.40;;
70592;SDS011;58294;42.988;20.338;2022-12-15T13:12:49;220.85;;;172.88;;
70592;SDS011;58294;42.988;20.338;2022-12-15T13:18:53;228.13;;;174.80;;
70592;SDS011;58294;42.988;20.338;2022-12-15T13:20:46;236.07;;;178.23;;
70592;SDS011;58294;42.988;20.338;2022-12-15T13:23:35;207.55;;;158.13;;
70592;SDS011;58294;42.988;20.338;2022-12-15T13:39:01;234.55;;;173.25;;
70592;SDS011;58294;42.988;20.338;2022-12-15T13:41:28;140.32;;;103.43;;
70592;SDS011;58294;42.988;20.338;2022-12-15T13:43:54;159.00;;;106.07;;
70592;SDS011;58294;42.988;20.338;2022-12-15T13:46:23;167.55;;;113.43;;
70592;SDS011;58294;42.988;20.338;2022-12-15T13:48:53;195.75;;;135.73;;
70592;SDS011;58294;42.988;20.338;2022-12-15T13:51:41;150.57;;;89.53;;
70592;SDS011;58294;42.988;20.338;2022-12-15T13:54:22;163.05;;;109.93;;
70592;SDS011;58294;42.988;20.338;2022-12-15T13:57:25;144.88;;;104.35;;
70592;SDS011;58294;42.988;20.338;2022-12-15T14:00:12;145.45;;;103.35;;
70592;SDS011;58294;42.988;20.338;2022-12-15T14:02:45;174.40;;;115.28;;
70592;SDS011;58294;42.988;20.338;2022-12-15T14:07:42;180.50;;;124.15;;
70592;SDS011;58294;42.988;20.338;2022-12-15T14:15:44;175.20;;;113.38;;
70592;SDS011;58294;42.988;20.338;2022-12-15T14:20:52;208.30;;;129.90;;
70592;SDS011;58294;42.988;20.338;2022-12-15T14:23:25;172.60;;;115.38;;
70592;SDS011;58294;42.988;20.338;2022-12-15T14:26:01;187.15;;;123.93;;
70592;SDS011;58294;42.988;20.338;2022-12-15T14:28:35;191.63;;;113.90;;
70592;SDS011;58294;42.988;20.338;2022-12-15T14:31:04;169.68;;;107.75;;
70592;SDS011;58294;42.988;20.338;2022-12-15T14:33:36;178.80;;;109.18;;
70592;SDS011;58294;42.988;20.338;2022-12-15T14:36:08;211.63;;;116.18;;
70592;SDS011;58294;42.988;20.338;2022-12-15T14:38:48;166.45;;;107.00;;
70592;SDS011;58294;42.988;20.338;2022-12-15T14:41:18;251.70;;;109.10;;
70592;SDS011;58294;42.988;20.338;2022-12-15T14:43:47;190.82;;;98.57;;
70592;SDS011;58294;42.988;20.338;2022-12-15T14:46:15;167.02;;;98.03;;
70592;SDS011;58294;42.988;20.338;2022-12-15T14:48:55;261.08;;;116.95;;
70592;SDS011;58294;42.988;20.338;2022-12-15T14:51:30;180.48;;;103.38;;
70592;SDS011;58294;42.988;20.338;2022-12-15T14:54:05;166.93;;;93.10;;
70592;SDS011;58294;42.988;20.338;2022-12-15T14:56:30;172.27;;;84.65;;
70592;SDS011;58294;42.988;20.338;2022-12-15T15:01:57;182.73;;;91.88;;
70592;SDS011;58294;42.988;20.338;2022-12-15T15:04:30;216.15;;;113.00;;
70592;SDS011;58294;42.988;20.338;2022-12-15T15:06:58;198.45;;;111.90;;
70592;SDS011;58294;42.988;20.338;2022-12-15T15:09:27;226.70;;;121.10;;
70592;SDS011;58294;42.988;20.338;2022-12-15T15:14:45;250.70;;;121.03;;
70592;SDS011;58294;42.988;20.338;2022-12-15T15:17:15;207.10;;;102.45;;
70592;SDS011;58294;42.988;20.338;2022-12-15T15:20:04;196.13;;;104.68;;
70592;SDS011;58294;42.988;20.338;2022-12-15T15:28:39;199.93;;;105.13;;
70592;SDS011;58294;42.988;20.338;2022-12-15T15:30:53;252.65;;;130.27;;
70592;SDS011;58294;42.988;20.338;2022-12-15T15:33:29;266.52;;;148.48;;
70592;SDS011;58294;42.988;20.338;2022-12-15T15:35:56;237.57;;;132.95;;
70592;SDS011;58294;42.988;20.338;2022-12-15T15:40:56;262.73;;;143.65;;
70592;SDS011;58294;42.988;20.338;2022-12-15T15:43:24;209.30;;;127.13;;
70592;SDS011;58294;42.988;20.338;2022-12-15T15:45:59;231.55;;;128.73;;
70592;SDS011;58294;42.988;20.338;2022-12-15T15:48:30;224.77;;;126.68;;
70592;SDS011;58294;42.988;20.338;2022-12-15T15:50:59;200.05;;;121.10;;
70592;SDS011;58294;42.988;20.338;2022-12-15T15:53:26;266.27;;;122.35;;
70592;SDS011;58294;42.988;20.338;2022-12-15T15:55:56;191.25;;;112.05;;
70592;SDS011;58294;42.988;20.338;2022-12-15T15:58:22;229.15;;;133.30;;
70592;SDS011;58294;42.988;20.338;2022-12-15T16:00:48;262.95;;;156.93;;
70592;SDS011;58294;42.988;20.338;2022-12-15T16:03:13;246.10;;;150.52;;
70592;SDS011;58294;42.988;20.338;2022-12-15T16:05:40;288.90;;;150.45;;
70592;SDS011;58294;42.988;20.338;2022-12-15T16:08:08;269.73;;;137.90;;
70592;SDS011;58294;42.988;20.338;2022-12-15T16:10:37;281.80;;;138.63;;
70592;SDS011;58294;42.988;20.338;2022-12-15T16:13:04;250.38;;;122.70;;
70592;SDS011;58294;42.988;20.338;2022-12-15T16:15:30;244.43;;;125.18;;
70592;SDS011;58294;42.988;20.338;2022-12-15T16:17:56;201.63;;;111.45;;
70592;SDS011;58294;42.988;20.338;2022-12-15T16:20:24;231.40;;;98.40;;
70592;SDS011;58294;42.988;20.338;2022-12-15T16:22:52;228.43;;;95.88;;
70592;SDS011;58294;42.988;20.338;2022-12-15T16:25:32;264.52;;;106.40;;
70592;SDS011;58294;42.988;20.338;2022-12-15T16:28:01;217.88;;;105.95;;
70592;SDS011;58294;42.988;20.338;2022-12-15T16:30:27;224.05;;;100.53;;
70592;SDS011;58294;42.988;20.338;2022-12-15T16:32:53;177.20;;;89.47;;
70592;SDS011;58294;42.988;20.338;2022-12-15T16:35:20;181.23;;;99.70;;
70592;SDS011;58294;42.988;20.338;2022-12-15T16:37:49;264.23;;;118.32;;
70592;SDS011;58294;42.988;20.338;2022-12-15T16:40:19;259.30;;;123.18;;
70592;SDS011;58294;42.988;20.338;2022-12-15T16:42:55;258.10;;;121.93;;